Time;durP1;ratioP1;P1;durP2;ratioP2;P2;SDS_P1;SDS_P2;PMS_P1;PMS_P2;Temp;Humidity;BMP_temperature;BMP_pressure;BME280_temperature;BME280_humidity;BME280_pressure;Samples;Min_cycle;Max_cycle;Signal;HPM_P1;HPM_P2
2023/01/14 00:01:43;;;;;;;12.73;2.50;;;8.10;99.90;;;;;;5069513;28;20036;-64
2023/01/14 00:04:09;;;;;;;12.15;2.30;;;8.10;99.90;;;;;;5087712;28;20069;-64
2023/01/14 00:06:35;;;;;;;13.45;2.20;;;8.00;99.90;;;;;;5082152;28;20111;-64
2023/01/14 00:09:04;;;;;;;16.05;3.13;;;8.00;99.90;;;;;;5090659;28;20103;-64
2023/01/14 00:14:19;;;;;;;11.90;2.33;;;8.00;99.90;;;;;;5089186;28;20061;-64
2023/01/14 00:16:45;;;;;;;8.55;2.22;;;7.90;99.90;;;;;;5069144;28;20568;-64
2023/01/14 00:19:11;;;;;;;12.20;2.08;;;7.90;99.90;;;;;;5094461;28;20476;-64
2023/01/14 00:21:37;;;;;;;13.95;2.58;;;7.90;99.90;;;;;;5092467;28;20747;-64
2023/01/14 00:24:03;;;;;;;15.77;2.10;;;7.90;99.90;;;;;;5090839;28;20104;-64
2023/01/14 00:26:28;;;;;;;15.43;2.63;;;7.90;99.90;;;;;;5069764;28;20020;-64
2023/01/14 00:28:54;;;;;;;15.98;2.53;;;7.90;99.90;;;;;;5088088;28;20047;-64
2023/01/14 00:31:27;;;;;;;14.27;3.35;;;7.90;99.90;;;;;;5090015;28;20053;-64
2023/01/14 00:33:54;;;;;;;16.27;2.60;;;7.90;99.90;;;;;;5069847;28;20582;-64
2023/01/14 00:36:22;;;;;;;15.13;2.45;;;7.90;99.90;;;;;;5088099;28;20028;-64
2023/01/14 00:38:48;;;;;;;15.20;2.40;;;7.90;99.90;;;;;;5090016;28;20036;-64
2023/01/14 00:41:18;;;;;;;11.98;2.60;;;7.90;99.90;;;;;;5089427;28;20024;-65
2023/01/14 00:43:50;;;;;;;13.50;2.05;;;7.90;99.90;;;;;;5087829;28;20497;-64
2023/01/14 00:46:19;;;;;;;12.25;2.35;;;8.00;99.90;;;;;;5088105;28;20028;-64
2023/01/14 00:48:45;;;;;;;14.77;2.35;;;7.90;99.90;;;;;;5106735;27;20027;-64
2023/01/14 00:51:12;;;;;;;13.70;2.35;;;7.90;99.90;;;;;;5093835;28;20073;-64
2023/01/14 00:53:39;;;;;;;16.20;2.03;;;7.90;99.90;;;;;;5089474;28;20367;-64
2023/01/14 00:56:05;;;;;;;12.57;2.33;;;7.90;99.90;;;;;;5091616;28;20031;-64
2023/01/14 00:58:31;;;;;;;16.17;2.67;;;7.90;99.90;;;;;;5069211;28;20097;-64
2023/01/14 01:00:57;;;;;;;19.20;2.53;;;7.90;99.90;;;;;;5087385;28;20390;-64
2023/01/14 01:03:23;;;;;;;18.30;2.72;;;7.90;99.90;;;;;;5090851;28;20473;-64
2023/01/14 01:05:50;;;;;;;12.68;2.50;;;7.80;99.90;;;;;;5088018;28;20107;-64
2023/01/14 01:08:18;;;;;;;19.92;2.85;;;7.80;99.90;;;;;;5087397;28;20094;-64
2023/01/14 01:10:45;;;;;;;13.32;2.17;;;7.80;99.90;;;;;;5071903;28;20040;-64
2023/01/14 01:13:12;;;;;;;12.25;2.70;;;7.80;99.90;;;;;;5090513;28;20022;-64
2023/01/14 01:15:38;;;;;;;13.10;2.20;;;7.80;99.90;;;;;;5090092;28;20027;-64
2023/01/14 01:18:04;;;;;;;8.70;1.70;;;7.80;99.90;;;;;;5072284;28;20060;-64
2023/01/14 01:20:30;;;;;;;14.40;2.92;;;7.80;99.90;;;;;;5089133;28;20074;-64
2023/01/14 01:22:56;;;;;;;20.50;2.10;;;7.70;99.90;;;;;;5087587;28;20033;-64
2023/01/14 01:25:22;;;;;;;16.10;2.47;;;7.70;99.90;;;;;;5080429;28;20026;-64
2023/01/14 01:27:47;;;;;;;14.23;2.55;;;7.70;99.90;;;;;;5089165;28;20099;-64
2023/01/14 01:30:13;;;;;;;11.25;1.80;;;7.60;99.90;;;;;;5087318;28;20055;-64
2023/01/14 01:32:39;;;;;;;15.50;2.05;;;7.60;99.90;;;;;;5091799;28;20497;-64
2023/01/14 01:35:05;;;;;;;23.58;3.28;;;7.60;99.90;;;;;;5090665;28;20043;-64
2023/01/14 01:37:30;;;;;;;13.45;2.90;;;7.60;99.90;;;;;;5071275;28;20028;-65
2023/01/14 01:39:56;;;;;;;10.00;2.78;;;7.50;99.90;;;;;;5087701;28;20077;-64
2023/01/14 01:42:23;;;;;;;15.60;2.78;;;7.50;99.90;;;;;;5090145;28;20024;-64
2023/01/14 01:44:48;;;;;;;17.50;2.75;;;7.50;99.90;;;;;;5090363;28;20070;-64
2023/01/14 01:47:16;;;;;;;17.38;2.95;;;7.50;99.90;;;;;;5070672;28;20047;-64
2023/01/14 01:49:42;;;;;;;17.40;3.75;;;7.40;99.90;;;;;;5093363;28;20078;-64
2023/01/14 01:52:20;;;;;;;15.93;2.78;;;7.40;99.90;;;;;;5091838;28;20099;-64
2023/01/14 01:54:51;;;;;;;18.63;2.47;;;7.40;99.90;;;;;;5071089;28;20149;-64
2023/01/14 01:57:17;;;;;;;16.50;3.47;;;7.30;99.90;;;;;;5087227;28;20386;-64
2023/01/14 01:59:48;;;;;;;16.38;3.42;;;7.20;99.90;;;;;;5070345;28;20095;-64
2023/01/14 02:02:15;;;;;;;13.75;2.92;;;7.20;99.90;;;;;;5089728;28;20079;-64
2023/01/14 02:04:40;;;;;;;16.45;3.00;;;7.10;99.90;;;;;;5086581;28;20037;-64
2023/01/14 02:07:23;;;;;;;17.05;2.95;;;7.00;99.90;;;;;;5068897;28;20076;-64
2023/01/14 02:09:56;;;;;;;16.55;3.03;;;7.00;99.90;;;;;;5077557;28;20048;-64
2023/01/14 02:12:59;;;;;;;17.90;3.10;;;6.90;99.90;;;;;;5089671;28;20049;-64
2023/01/14 02:15:43;;;;;;;23.23;3.78;;;6.90;99.90;;;;;;5080369;28;20089;-64
2023/01/14 02:18:31;;;;;;;21.70;3.70;;;6.80;99.90;;;;;;5068995;28;20035;-64
2023/01/14 02:21:12;;;;;;;24.23;3.97;;;6.80;99.90;;;;;;5095744;28;20319;-63
2023/01/14 02:23:52;;;;;;;20.75;3.95;;;6.80;99.90;;;;;;5087071;28;20020;-62
2023/01/14 02:26:26;;;;;;;18.10;3.13;;;6.70;99.90;;;;;;5087641;28;20489;-63
2023/01/14 02:29:21;;;;;;;22.73;4.40;;;6.70;99.90;;;;;;5094991;28;20107;-63
2023/01/14 02:32:11;;;;;;;16.23;3.40;;;6.70;99.90;;;;;;5095341;28;20032;-63
2023/01/14 02:34:47;;;;;;;17.30;3.72;;;6.60;99.90;;;;;;5087126;28;20444;-63
2023/01/14 02:37:25;;;;;;;25.10;4.15;;;6.50;99.90;;;;;;5094936;28;20028;-63
2023/01/14 02:40:01;;;;;;;24.58;4.32;;;6.50;99.90;;;;;;5090297;28;20118;-63
2023/01/14 02:45:37;;;;;;;20.88;5.38;;;6.40;99.90;;;;;;5092448;28;20024;-62
2023/01/14 02:48:05;;;;;;;18.80;3.55;;;6.40;99.90;;;;;;5091420;28;20016;-63
2023/01/14 02:50:32;;;;;;;19.88;4.15;;;6.30;99.90;;;;;;5094015;28;20548;-63
2023/01/14 02:52:58;;;;;;;24.35;4.15;;;6.30;99.90;;;;;;5089664;28;20466;-63
2023/01/14 02:55:29;;;;;;;23.25;4.22;;;6.30;99.90;;;;;;5091170;28;20106;-63
2023/01/14 02:58:14;;;;;;;18.48;3.97;;;6.30;99.90;;;;;;5089250;28;20024;-63
2023/01/14 03:00:51;;;;;;;22.50;3.67;;;6.30;99.90;;;;;;5079948;28;20020;-62
2023/01/14 03:03:26;;;;;;;28.00;4.35;;;6.30;99.90;;;;;;5089911;28;20020;-63
2023/01/14 03:06:15;;;;;;;28.88;4.68;;;6.30;99.90;;;;;;5090627;28;20063;-62
2023/01/14 03:08:47;;;;;;;23.30;4.10;;;6.30;99.90;;;;;;5093498;28;20134;-63
2023/01/14 03:11:12;;;;;;;24.77;3.92;;;6.30;99.90;;;;;;5089590;28;20479;-63
2023/01/14 03:14:03;;;;;;;25.73;5.70;;;6.30;99.90;;;;;;5089787;28;20511;-63
2023/01/14 03:16:39;;;;;;;20.35;3.90;;;6.30;99.90;;;;;;5083636;28;20027;-63
2023/01/14 03:19:21;;;;;;;22.88;4.20;;;6.20;99.90;;;;;;5108172;28;20019;-63
2023/01/14 03:21:52;;;;;;;25.70;4.10;;;6.20;99.90;;;;;;5085975;28;20032;-63
2023/01/14 03:24:46;;;;;;;15.07;3.38;;;6.20;99.90;;;;;;5092457;28;20485;-63
2023/01/14 03:27:23;;;;;;;24.35;3.97;;;6.20;99.90;;;;;;5092669;28;20027;-63
2023/01/14 03:29:54;;;;;;;33.15;5.00;;;6.20;99.90;;;;;;5092509;28;20084;-62
2023/01/14 03:32:26;;;;;;;26.60;4.28;;;6.20;99.90;;;;;;5092244;28;20534;-62
2023/01/14 03:35:01;;;;;;;30.55;5.53;;;6.20;99.90;;;;;;5092271;28;20481;-63
2023/01/14 03:37:28;;;;;;;27.50;4.97;;;6.10;99.90;;;;;;5082727;28;20089;-63
2023/01/14 03:39:57;;;;;;;26.65;3.80;;;6.10;99.90;;;;;;5072430;28;20105;-62
2023/01/14 03:42:28;;;;;;;34.67;4.65;;;6.10;99.90;;;;;;5094813;28;20052;-62
2023/01/14 03:45:03;;;;;;;23.08;3.97;;;6.10;99.90;;;;;;5091691;28;20536;-63
2023/01/14 03:47:31;;;;;;;30.38;5.18;;;6.10;99.90;;;;;;5095330;28;20023;-63
2023/01/14 03:50:00;;;;;;;29.50;5.28;;;6.10;99.90;;;;;;5098186;28;20432;-63
2023/01/14 03:52:38;;;;;;;35.38;5.05;;;6.00;99.90;;;;;;5091723;28;20031;-63
2023/01/14 03:55:12;;;;;;;24.23;5.20;;;6.10;99.90;;;;;;5092097;28;20016;-63
2023/01/14 03:57:56;;;;;;;33.40;4.55;;;6.10;99.90;;;;;;5088899;28;20102;-63
2023/01/14 04:00:36;;;;;;;33.42;5.05;;;6.10;99.90;;;;;;5091639;28;20031;-63
2023/01/14 04:03:05;;;;;;;26.23;4.68;;;6.10;99.90;;;;;;5096456;28;20544;-63
2023/01/14 04:05:31;;;;;;;29.98;5.28;;;6.00;99.90;;;;;;5091476;28;20405;-63
2023/01/14 04:07:59;;;;;;;33.78;4.82;;;6.00;99.90;;;;;;5070781;28;21339;-62
2023/01/14 04:10:25;;;;;;;21.80;4.30;;;6.10;99.90;;;;;;5072594;28;20480;-63
2023/01/14 04:15:35;;;;;;;33.17;4.80;;;6.10;99.90;;;;;;5088797;28;20035;-63
2023/01/14 04:18:02;;;;;;;22.92;4.03;;;6.20;99.90;;;;;;5087946;28;20024;-63
2023/01/14 04:20:27;;;;;;;30.40;4.95;;;6.20;99.90;;;;;;5094220;28;20020;-63
2023/01/14 04:22:53;;;;;;;22.33;4.47;;;6.20;99.90;;;;;;5092385;28;20028;-62
2023/01/14 04:25:18;;;;;;;31.00;4.90;;;6.20;99.90;;;;;;5076645;28;21252;-62
2023/01/14 04:27:44;;;;;;;28.38;4.97;;;6.20;99.90;;;;;;5072556;28;20028;-63
2023/01/14 04:30:10;;;;;;;26.20;4.97;;;6.20;99.90;;;;;;5088678;28;20032;-63
2023/01/14 04:32:36;;;;;;;35.35;4.82;;;6.20;99.90;;;;;;5088035;28;20028;-63
2023/01/14 04:35:02;;;;;;;27.08;4.57;;;6.20;99.90;;;;;;5106517;27;20484;-63
2023/01/14 04:37:27;;;;;;;33.72;6.05;;;6.20;99.90;;;;;;5090818;28;20024;-62
2023/01/14 04:39:53;;;;;;;38.20;5.18;;;6.20;99.90;;;;;;5090697;28;20050;-62
2023/01/14 04:42:28;;;;;;;37.42;5.20;;;6.10;99.90;;;;;;5090377;28;20023;-63
2023/01/14 04:45:00;;;;;;;27.02;4.53;;;6.10;99.90;;;;;;5090966;28;20024;-62
2023/01/14 04:47:27;;;;;;;31.52;5.30;;;6.10;99.90;;;;;;5090502;28;20013;-62
2023/01/14 04:49:53;;;;;;;31.63;5.20;;;6.10;99.90;;;;;;5087786;28;20044;-63
2023/01/14 04:52:19;;;;;;;34.92;4.93;;;6.10;99.90;;;;;;5070797;28;20016;-63
2023/01/14 04:54:44;;;;;;;26.50;4.72;;;6.10;99.90;;;;;;5091772;28;20438;-63
2023/01/14 04:57:10;;;;;;;37.25;6.28;;;6.10;99.90;;;;;;5092204;28;20034;-62
2023/01/14 04:59:36;;;;;;;36.30;7.00;;;6.10;99.90;;;;;;5086563;28;20389;-62
2023/01/14 05:02:02;;;;;;;29.83;5.55;;;6.00;99.90;;;;;;5089943;28;20497;-63
2023/01/14 05:04:27;;;;;;;27.08;3.95;;;6.00;99.90;;;;;;5091955;28;20026;-63
2023/01/14 05:06:54;;;;;;;23.27;3.95;;;6.00;99.90;;;;;;5099398;28;20034;-62
2023/01/14 05:09:20;;;;;;;22.98;3.97;;;6.10;99.90;;;;;;5091818;28;20032;-62
2023/01/14 05:11:46;;;;;;;30.27;4.28;;;6.00;99.90;;;;;;5092730;28;20032;-62
2023/01/14 05:14:11;;;;;;;36.15;5.88;;;6.10;99.90;;;;;;5081356;28;20031;-62
2023/01/14 05:16:37;;;;;;;29.23;3.97;;;6.10;99.90;;;;;;5088553;28;20028;-63
2023/01/14 05:19:02;;;;;;;22.27;3.53;;;6.10;99.90;;;;;;5086833;28;20109;-63
2023/01/14 05:21:28;;;;;;;18.63;3.33;;;6.10;99.90;;;;;;5069683;28;20397;-62
2023/01/14 05:23:53;;;;;;;32.45;3.97;;;6.10;99.90;;;;;;5090548;28;20024;-62
2023/01/14 05:26:19;;;;;;;21.42;4.50;;;6.20;99.90;;;;;;5090887;28;20097;-63
2023/01/14 05:28:44;;;;;;;28.95;3.70;;;6.20;99.90;;;;;;5093042;28;20023;-62
2023/01/14 05:31:10;;;;;;;31.52;5.70;;;6.20;99.90;;;;;;5108661;28;20051;-63
2023/01/14 05:33:36;;;;;;;29.75;4.38;;;6.20;99.90;;;;;;5073442;28;20028;-62
2023/01/14 05:36:01;;;;;;;22.83;3.63;;;6.20;99.90;;;;;;5072037;28;20016;-63
2023/01/14 05:38:27;;;;;;;30.38;3.83;;;6.20;99.90;;;;;;5089709;28;20035;-65
2023/01/14 05:40:53;;;;;;;26.40;3.95;;;6.20;99.90;;;;;;5090952;28;20031;-63
2023/01/14 05:46:06;;;;;;;30.08;4.32;;;6.30;99.90;;;;;;5086774;28;20030;-62
2023/01/14 05:48:32;;;;;;;30.00;3.55;;;6.30;99.90;;;;;;5092230;28;20028;-62
2023/01/14 05:50:59;;;;;;;30.58;4.05;;;6.30;99.90;;;;;;5090055;28;20622;-63
2023/01/14 05:53:26;;;;;;;19.85;4.47;;;6.30;99.90;;;;;;5090561;28;20020;-62
2023/01/14 05:55:53;;;;;;;30.73;3.63;;;6.30;99.90;;;;;;5089259;28;20024;-63
2023/01/14 05:58:20;;;;;;;24.77;3.97;;;6.30;99.90;;;;;;5087243;28;20066;-62
2023/01/14 06:06:28;;;;;;;29.35;4.05;;;6.30;99.90;;;;;;5090032;28;20035;-63
2023/01/14 06:09:04;;;;;;;27.35;3.35;;;6.30;99.90;;;;;;5085501;28;20028;-63
2023/01/14 06:11:32;;;;;;;24.00;4.25;;;6.40;99.90;;;;;;5090113;28;20082;-62
2023/01/14 06:13:58;;;;;;;20.13;3.38;;;6.40;99.90;;;;;;5093691;28;20020;-62
2023/01/14 06:16:28;;;;;;;24.63;3.97;;;6.40;99.90;;;;;;5090912;28;20472;-62
2023/01/14 06:18:55;;;;;;;28.65;4.32;;;6.40;99.90;;;;;;5074251;28;20085;-62
2023/01/14 06:21:23;;;;;;;26.92;4.60;;;6.40;99.90;;;;;;5095976;28;20054;-63
2023/01/14 06:23:49;;;;;;;16.83;3.13;;;6.40;99.90;;;;;;5093957;28;20080;-63
2023/01/14 06:26:17;;;;;;;23.35;3.35;;;6.50;99.90;;;;;;5093162;28;20060;-63
2023/01/14 06:28:43;;;;;;;25.38;3.92;;;6.50;99.90;;;;;;5075139;28;20027;-63
2023/01/14 06:31:17;;;;;;;24.00;3.45;;;6.50;99.90;;;;;;5091090;28;20020;-63
2023/01/14 06:33:44;;;;;;;21.85;3.08;;;6.50;99.90;;;;;;5090399;28;20438;-63
2023/01/14 06:36:12;;;;;;;23.40;3.03;;;6.50;99.90;;;;;;5090992;28;20568;-63
2023/01/14 06:38:38;;;;;;;22.80;4.15;;;6.50;99.90;;;;;;5092518;28;20423;-63
2023/01/14 06:41:05;;;;;;;20.08;3.10;;;6.60;99.90;;;;;;5086040;28;20473;-62
2023/01/14 06:43:31;;;;;;;20.13;3.30;;;6.60;99.90;;;;;;5093134;28;20381;-63
2023/01/14 06:45:57;;;;;;;19.60;3.15;;;6.60;99.90;;;;;;5110649;28;20032;-63
2023/01/14 06:48:25;;;;;;;24.70;3.85;;;6.60;99.90;;;;;;5089016;28;20031;-63
2023/01/14 06:50:50;;;;;;;27.23;3.92;;;6.60;99.90;;;;;;5110310;28;20028;-63
2023/01/14 06:53:17;;;;;;;29.10;3.78;;;6.70;99.90;;;;;;5090022;28;20024;-63
2023/01/14 06:55:42;;;;;;;26.08;3.50;;;6.70;99.90;;;;;;5096906;28;20073;-63
2023/01/14 06:58:08;;;;;;;26.98;5.72;;;6.70;99.90;;;;;;5093969;28;20448;-63
2023/01/14 07:00:34;;;;;;;24.75;3.33;;;6.70;99.90;;;;;;5093145;28;20031;-63
2023/01/14 07:02:59;;;;;;;25.77;3.28;;;6.70;99.90;;;;;;5093870;28;20016;-63
2023/01/14 07:05:25;;;;;;;20.35;3.33;;;6.60;99.90;;;;;;5103442;27;20053;-63
2023/01/14 07:07:50;;;;;;;23.40;3.25;;;6.60;99.90;;;;;;5094873;28;20028;-63
2023/01/14 07:10:17;;;;;;;23.58;3.25;;;6.60;99.90;;;;;;5097033;28;20056;-63
2023/01/14 07:12:51;;;;;;;25.40;4.25;;;6.60;99.90;;;;;;5092001;28;20489;-63
2023/01/14 07:15:19;;;;;;;26.88;4.38;;;6.60;99.90;;;;;;5108726;28;20038;-64
2023/01/14 07:17:46;;;;;;;21.70;3.42;;;6.50;99.90;;;;;;5105350;28;20026;-64
2023/01/14 07:20:12;;;;;;;25.50;4.00;;;6.50;99.90;;;;;;5107849;28;20074;-64
2023/01/14 07:22:38;;;;;;;21.63;3.05;;;6.60;99.90;;;;;;5100303;28;20016;-64
2023/01/14 07:25:05;;;;;;;23.95;3.50;;;6.50;99.90;;;;;;5098476;28;20092;-64
2023/01/14 07:27:31;;;;;;;26.50;3.40;;;6.50;99.90;;;;;;5092743;28;20049;-64
2023/01/14 07:29:57;;;;;;;29.50;4.35;;;6.50;99.90;;;;;;5102169;28;20031;-64
2023/01/14 07:32:23;;;;;;;28.10;3.25;;;6.50;99.90;;;;;;5099149;28;20051;-64
2023/01/14 07:34:49;;;;;;;30.35;3.60;;;6.50;99.90;;;;;;5108262;28;20373;-64
2023/01/14 07:37:15;;;;;;;21.48;4.15;;;6.50;99.90;;;;;;5111941;28;20373;-64
2023/01/14 07:39:40;;;;;;;23.85;3.50;;;6.50;99.90;;;;;;5095357;28;20023;-64
2023/01/14 07:42:06;;;;;;;21.00;3.45;;;6.50;99.90;;;;;;5093525;28;20026;-64
2023/01/14 07:44:31;;;;;;;24.67;3.38;;;6.50;99.90;;;;;;5093560;28;20020;-64
2023/01/14 07:46:57;;;;;;;25.75;3.20;;;6.50;99.90;;;;;;5103062;28;20051;-64
2023/01/14 07:49:23;;;;;;;27.20;3.63;;;6.50;99.90;;;;;;5127709;27;20015;-64
2023/01/14 07:51:49;;;;;;;20.92;3.67;;;6.50;99.90;;;;;;5113058;28;20032;-64
2023/01/14 07:54:15;;;;;;;25.63;2.85;;;6.50;99.90;;;;;;5095700;28;20090;-64
2023/01/14 07:56:41;;;;;;;20.48;3.70;;;6.50;99.90;;;;;;5095476;28;20496;-64
2023/01/14 07:59:07;;;;;;;19.05;3.10;;;6.50;99.90;;;;;;5115263;27;20020;-64
2023/01/14 08:01:33;;;;;;;26.88;2.95;;;6.50;99.90;;;;;;5100039;28;20094;-64
2023/01/14 08:03:59;;;;;;;17.95;4.22;;;6.50;99.90;;;;;;5076088;28;20545;-64
2023/01/14 08:06:25;;;;;;;21.95;3.65;;;6.50;99.90;;;;;;5103589;28;20069;-64
2023/01/14 08:08:50;;;;;;;20.25;3.38;;;6.50;99.90;;;;;;5099332;28;20085;-64
2023/01/14 08:11:16;;;;;;;18.70;3.40;;;6.60;99.90;;;;;;5073671;28;20513;-64
2023/01/14 08:13:42;;;;;;;21.98;3.15;;;6.60;99.90;;;;;;5105604;27;20061;-64
2023/01/14 08:16:09;;;;;;;19.50;3.67;;;6.60;99.90;;;;;;5111144;28;20028;-64
2023/01/14 08:18:35;;;;;;;17.20;4.05;;;6.60;99.90;;;;;;5092431;28;20024;-64
2023/01/14 08:21:03;;;;;;;22.52;3.33;;;6.60;99.90;;;;;;5086489;28;20369;-64
2023/01/14 08:23:29;;;;;;;14.70;3.42;;;6.70;99.90;;;;;;5093064;28;20016;-64
2023/01/14 08:26:03;;;;;;;20.48;3.35;;;6.70;99.90;;;;;;5095975;28;20063;-64
2023/01/14 08:28:29;;;;;;;14.20;3.55;;;6.70;99.90;;;;;;5107675;27;20098;-64
2023/01/14 08:31:06;;;;;;;11.63;2.85;;;6.70;99.90;;;;;;5104834;27;20098;-64
2023/01/14 08:33:32;;;;;;;10.02;2.88;;;6.80;99.90;;;;;;5107824;28;20043;-64
2023/01/14 08:36:05;;;;;;;15.73;3.47;;;6.80;99.90;;;;;;5107989;28;20023;-64
2023/01/14 08:38:34;;;;;;;11.48;2.40;;;6.80;99.90;;;;;;5101730;28;20098;-64
2023/01/14 08:41:05;;;;;;;23.20;4.45;;;6.90;99.90;;;;;;5096690;28;20073;-64
2023/01/14 08:43:30;;;;;;;16.17;2.65;;;6.90;99.90;;;;;;5098067;28;20515;-64
2023/01/14 08:45:56;;;;;;;12.23;2.55;;;6.90;99.90;;;;;;5098748;28;20036;-64
2023/01/14 08:48:21;;;;;;;8.35;2.17;;;6.90;99.90;;;;;;5091523;28;20062;-65
2023/01/14 08:50:47;;;;;;;10.90;2.53;;;7.00;99.90;;;;;;5098554;28;20036;-64
2023/01/14 08:53:12;;;;;;;13.07;2.50;;;7.00;99.90;;;;;;5102916;28;20043;-64
2023/01/14 08:55:38;;;;;;;9.55;2.15;;;7.10;99.90;;;;;;5091453;28;20099;-65
2023/01/14 08:58:08;;;;;;;11.00;2.47;;;7.10;99.90;;;;;;5099489;28;20047;-64
2023/01/14 09:00:33;;;;;;;9.68;2.40;;;7.20;99.90;;;;;;5107473;28;20024;-64
2023/01/14 09:02:59;;;;;;;10.90;2.05;;;7.20;99.90;;;;;;5101684;28;20520;-64
2023/01/14 09:05:25;;;;;;;10.32;3.15;;;7.30;99.90;;;;;;5104224;28;20028;-64
2023/01/14 09:18:52;;;;;;;11.02;1.70;;;7.30;99.90;;;;;;5091914;28;20038;-64
2023/01/14 09:21:17;;;;;;;9.00;1.55;;;7.40;99.90;;;;;;5097596;28;20016;-65
2023/01/14 09:23:43;;;;;;;6.85;1.77;;;7.40;99.90;;;;;;5097866;28;20028;-65
2023/01/14 09:26:08;;;;;;;7.93;1.55;;;7.40;99.90;;;;;;5108069;28;20039;-64
2023/01/14 09:28:34;;;;;;;8.85;1.60;;;7.50;99.90;;;;;;5107837;28;20024;-65
2023/01/14 09:30:59;;;;;;;9.50;1.80;;;7.50;99.90;;;;;;5107640;28;20491;-65
2023/01/14 09:33:25;;;;;;;14.68;1.80;;;7.50;99.90;;;;;;5109785;28;20024;-65
2023/01/14 09:35:50;;;;;;;10.75;1.95;;;7.50;99.90;;;;;;5090130;28;20023;-65
2023/01/14 09:38:16;;;;;;;15.80;2.65;;;7.50;99.90;;;;;;5105627;28;20024;-65
2023/01/14 09:40:41;;;;;;;9.85;2.30;;;7.50;99.90;;;;;;5120120;28;20111;-65
2023/01/14 09:43:15;;;;;;;5.95;1.60;;;7.50;99.90;;;;;;5088117;28;20024;-66
2023/01/14 09:45:40;;;;;;;12.95;1.77;;;7.60;99.90;;;;;;5111355;28;20076;-66
2023/01/14 09:48:16;;;;;;;7.32;1.73;;;7.50;99.90;;;;;;5111095;28;20011;-65
2023/01/14 09:51:05;;;;;;;9.93;1.40;;;7.60;99.90;;;;;;5091134;28;20546;-66
2023/01/14 09:53:43;;;;;;;6.13;1.42;;;7.60;99.90;;;;;;5113452;28;20027;-66
2023/01/14 09:56:44;;;;;;;6.28;1.20;;;7.60;99.90;;;;;;5112427;28;20331;-66
2023/01/14 09:59:38;;;;;;;9.55;1.50;;;7.60;99.90;;;;;;5074527;28;20028;-66
2023/01/14 10:02:34;;;;;;;10.68;1.30;;;7.60;99.90;;;;;;5087369;28;20042;-66
2023/01/14 10:05:22;;;;;;;7.40;1.30;;;7.60;99.90;;;;;;5082468;28;20102;-66
2023/01/14 10:07:48;;;;;;;4.57;1.90;;;7.60;99.90;;;;;;5107527;28;20016;-67
2023/01/14 10:10:23;;;;;;;5.85;1.00;;;7.60;99.90;;;;;;5106221;28;20048;-66
2023/01/14 10:12:49;;;;;;;4.53;1.25;;;7.60;99.90;;;;;;5107995;28;20116;-66
2023/01/14 10:15:17;;;;;;;6.90;1.10;;;7.70;99.90;;;;;;5109348;28;20019;-66
2023/01/14 10:17:50;;;;;;;9.20;1.70;;;7.70;99.90;;;;;;5087564;28;20048;-66
2023/01/14 10:20:22;;;;;;;7.22;1.63;;;7.70;99.90;;;;;;5108475;28;20070;-66
2023/01/14 10:22:56;;;;;;;3.63;1.10;;;7.70;99.90;;;;;;5087840;28;20028;-66
2023/01/14 10:25:23;;;;;;;7.80;1.30;;;7.70;99.90;;;;;;5107854;28;20073;-66
2023/01/14 10:27:52;;;;;;;9.98;1.58;;;7.70;99.90;;;;;;5107553;28;20166;-65
2023/01/14 10:30:27;;;;;;;7.82;1.52;;;7.80;99.90;;;;;;5091504;28;20380;-66
2023/01/14 10:32:54;;;;;;;10.45;2.25;;;7.80;99.90;;;;;;5086409;28;20028;-66
2023/01/14 10:35:32;;;;;;;9.00;2.17;;;7.80;99.90;;;;;;5083107;28;20114;-65
2023/01/14 10:37:58;;;;;;;7.50;1.42;;;7.90;99.90;;;;;;5110843;28;20019;-65
2023/01/14 10:40:26;;;;;;;7.88;1.58;;;7.90;99.90;;;;;;5110010;28;20054;-66
2023/01/14 10:42:53;;;;;;;9.68;1.65;;;7.90;99.90;;;;;;5107204;27;20023;-66
2023/01/14 10:45:18;;;;;;;6.90;1.35;;;8.00;99.90;;;;;;5077543;28;20020;-66
2023/01/14 10:47:46;;;;;;;4.75;1.50;;;8.00;99.90;;;;;;5097342;28;20077;-66
2023/01/14 10:50:25;;;;;;;8.50;1.65;;;8.00;99.90;;;;;;5103018;28;20034;-66
2023/01/14 10:52:52;;;;;;;7.50;1.50;;;8.10;99.90;;;;;;5096564;28;20034;-65
2023/01/14 10:55:28;;;;;;;4.07;1.05;;;8.10;99.90;;;;;;5110892;28;20022;-66
2023/01/14 10:58:13;;;;;;;9.82;1.52;;;8.10;99.90;;;;;;5105430;28;20077;-66
2023/01/14 11:00:41;;;;;;;8.98;2.15;;;8.20;99.90;;;;;;5107493;28;20032;-66
2023/01/14 11:03:26;;;;;;;12.98;2.13;;;8.20;99.90;;;;;;5106521;28;20065;-66
2023/01/14 11:05:57;;;;;;;6.40;1.10;;;8.30;99.90;;;;;;5106898;28;20503;-66
2023/01/14 11:08:28;;;;;;;5.45;1.40;;;8.30;99.90;;;;;;5101340;28;20032;-65
2023/01/14 11:10:58;;;;;;;9.27;1.10;;;8.30;99.90;;;;;;5107201;27;20052;-65
2023/01/14 11:13:29;;;;;;;7.55;1.30;;;8.40;99.90;;;;;;5080164;28;20392;-66
2023/01/14 11:15:55;;;;;;;7.35;1.45;;;8.40;99.90;;;;;;5102728;28;20492;-66
2023/01/14 11:18:27;;;;;;;9.57;1.25;;;8.40;99.90;;;;;;5105158;27;20047;-66
2023/01/14 11:21:10;;;;;;;6.68;1.15;;;8.50;99.90;;;;;;5076567;28;20024;-66
2023/01/14 11:23:39;;;;;;;5.85;1.40;;;8.50;99.90;;;;;;5110615;28;20011;-66
2023/01/14 11:26:08;;;;;;;7.13;1.25;;;8.50;99.90;;;;;;5108960;28;20019;-66
2023/01/14 11:28:37;;;;;;;9.13;1.40;;;8.50;99.90;;;;;;5094111;28;20019;-66
2023/01/14 11:31:03;;;;;;;5.65;1.10;;;8.50;99.90;;;;;;5109556;28;20110;-66
2023/01/14 11:33:32;;;;;;;5.38;1.05;;;8.60;99.90;;;;;;5110123;28;20095;-66
2023/01/14 11:35:58;;;;;;;7.57;0.90;;;8.60;99.90;;;;;;5107055;28;20062;-66
2023/01/14 11:38:26;;;;;;;4.60;1.00;;;8.60;99.90;;;;;;5103132;28;20036;-66
2023/01/14 11:43:52;;;;;;;4.47;0.80;;;8.70;99.90;;;;;;5105595;28;20667;-66
2023/01/14 11:46:18;;;;;;;4.97;1.25;;;8.80;99.90;;;;;;5086022;28;20118;-66
2023/01/14 11:48:43;;;;;;;6.75;1.25;;;8.80;99.90;;;;;;5100781;28;20456;-66
2023/01/14 11:51:20;;;;;;;3.50;1.02;;;8.80;99.90;;;;;;5104815;28;20034;-67
2023/01/14 11:53:50;;;;;;;3.05;1.15;;;8.80;99.90;;;;;;5084448;28;20111;-66
2023/01/14 11:56:26;;;;;;;5.20;0.85;;;8.90;99.90;;;;;;5096422;28;20028;-66
2023/01/14 11:58:52;;;;;;;2.88;0.90;;;8.90;99.90;;;;;;5078154;28;20028;-66
2023/01/14 12:01:36;;;;;;;3.08;0.80;;;8.90;99.90;;;;;;5074132;28;20569;-66
2023/01/14 12:04:15;;;;;;;2.00;0.80;;;8.90;99.90;;;;;;5105315;28;20028;-67
2023/01/14 12:07:00;;;;;;;3.22;0.60;;;8.90;99.90;;;;;;5073973;28;20419;-66
2023/01/14 12:10:13;;;;;;;4.53;0.63;;;9.00;99.90;;;;;;5092759;28;20032;-66
2023/01/14 12:18:34;;;;;;;2.22;0.75;;;9.00;99.90;;;;;;5097030;28;20105;-68
2023/01/14 12:21:02;;;;;;;2.72;0.80;;;9.00;99.90;;;;;;5082035;28;20019;-67
2023/01/14 12:23:33;;;;;;;3.53;0.77;;;9.00;99.90;;;;;;5103358;28;20042;-67
2023/01/14 12:26:18;;;;;;;2.72;0.70;;;8.90;99.90;;;;;;5098360;28;20016;-68
2023/01/14 12:28:49;;;;;;;3.00;0.93;;;9.00;99.90;;;;;;5112371;28;20024;-67
2023/01/14 12:31:27;;;;;;;4.88;0.82;;;9.00;99.90;;;;;;5074071;28;20075;-67
2023/01/14 12:34:02;;;;;;;1.73;0.63;;;9.00;99.90;;;;;;5073451;28;20493;-66
2023/01/14 12:36:46;;;;;;;9.25;0.90;;;9.00;99.90;;;;;;5095486;28;20027;-67
2023/01/14 12:45:44;;;;;;;1.65;0.70;;;9.00;99.90;;;;;;5092467;28;20031;-66
2023/01/14 12:48:24;;;;;;;2.15;0.50;;;9.00;99.90;;;;;;5092257;28;20451;-66
2023/01/14 12:51:00;;;;;;;2.55;0.80;;;9.10;99.90;;;;;;5106086;28;20028;-66
2023/01/14 12:53:33;;;;;;;2.30;0.60;;;9.10;99.90;;;;;;5082870;28;20062;-65
2023/01/14 12:56:01;;;;;;;3.25;0.80;;;9.10;99.90;;;;;;5073101;28;20134;-65
2023/01/14 12:58:32;;;;;;;2.58;0.60;;;9.10;99.90;;;;;;5097942;28;20786;-65
2023/01/14 13:01:02;;;;;;;1.95;0.63;;;9.10;99.90;;;;;;5091114;28;20481;-65
2023/01/14 13:03:45;;;;;;;2.03;0.80;;;9.10;99.90;;;;;;5091925;28;20141;-66
2023/01/14 13:06:17;;;;;;;3.05;0.70;;;9.20;99.90;;;;;;5091777;28;20106;-66
2023/01/14 13:08:50;;;;;;;1.45;0.57;;;9.10;99.90;;;;;;5087935;28;20036;-66
2023/01/14 13:11:18;;;;;;;4.05;0.93;;;9.20;99.90;;;;;;5108344;28;20043;-66
2023/01/14 13:13:51;;;;;;;2.92;0.93;;;9.20;99.90;;;;;;5086616;28;20045;-66
2023/01/14 13:16:40;;;;;;;4.15;0.80;;;9.20;99.90;;;;;;5107427;28;20055;-66
2023/01/14 13:19:33;;;;;;;2.78;0.70;;;9.20;99.90;;;;;;5104593;28;20024;-66
2023/01/14 13:22:08;;;;;;;2.95;1.00;;;9.20;99.90;;;;;;5105570;28;20024;-66
2023/01/14 13:24:57;;;;;;;2.22;0.70;;;9.20;99.90;;;;;;5104408;28;20050;-66
2023/01/14 13:27:40;;;;;;;3.50;0.70;;;9.20;99.90;;;;;;5109185;28;20030;-67
2023/01/14 13:30:18;;;;;;;3.00;0.80;;;9.30;99.90;;;;;;5116746;28;20397;-66
2023/01/14 13:33:00;;;;;;;2.13;0.63;;;9.30;99.90;;;;;;5100530;28;20045;-66
2023/01/14 13:35:31;;;;;;;1.33;0.70;;;9.30;99.90;;;;;;5107459;28;20028;-66
2023/01/14 13:37:58;;;;;;;3.47;0.70;;;9.30;99.90;;;;;;5087775;28;20115;-66
2023/01/14 13:40:28;;;;;;;1.10;0.70;;;9.30;99.90;;;;;;5108664;28;20503;-66
2023/01/14 13:42:59;;;;;;;1.10;0.57;;;9.40;99.90;;;;;;5107622;28;20065;-67
2023/01/14 13:45:26;;;;;;;1.92;0.70;;;9.40;99.90;;;;;;5105404;28;20018;-66
2023/01/14 13:47:52;;;;;;;1.55;0.98;;;9.40;99.90;;;;;;5104549;28;20020;-66
2023/01/14 13:50:24;;;;;;;4.60;0.70;;;9.40;99.90;;;;;;5090234;28;20023;-66